Brighton, United Kingdom
Current Conditions -  °F | °C
As of 11:50 AM on Sunday 25 Jan 2015 (Local Time) from EGKA Reporting Station
Broken Clouds Broken Clouds  
Wind Chill: 41°   Ceiling: 4200
Heat Index: 45°   Visibility: 6mi
Dew Point: 37°   Wind: 6mph
Humidity: 76%   Direction: 250°WSW
Pressure: 30.45"   Gusts: NA
Location:  50.83°N, 0.17°W
Report Text: EGKA 251150Z 25005KT 9999 BKN042 07/03 Q1031
Loading
Personal Weather Stations






























Interactive Weather Map New forecast layout! Learn more

10-Day Weather Forecast

Advertisements
Track Severe Weather on mobile